Time;durP1;ratioP1;P1;durP2;ratioP2;P2;SDS_P1;SDS_P2;PMS_P1;PMS_P2;Temp;Humidity;BMP_temperature;BMP_pressure;BME280_temperature;BME280_humidity;BME280_pressure;Samples;Min_cycle;Max_cycle;Signal;HPM_P1;HPM_P2
2022/12/14 00:01:10;;;;;;;35.37;19.30;;;-1.50;99.90;;;;;;5093748;28;20183;-71
2022/12/14 00:03:36;;;;;;;34.87;17.80;;;-1.50;99.90;;;;;;5093848;28;20278;-72
2022/12/14 00:06:09;;;;;;;35.67;18.40;;;-1.50;99.90;;;;;;5093239;28;20674;-71
2022/12/14 00:08:35;;;;;;;32.70;18.10;;;-1.40;99.90;;;;;;5093824;28;20168;-71
2022/12/14 00:11:00;;;;;;;31.33;18.40;;;-1.40;99.90;;;;;;5093321;28;20612;-71
2022/12/14 00:13:26;;;;;;;31.13;17.30;;;-1.20;99.90;;;;;;5093241;28;20292;-71
2022/12/14 00:15:51;;;;;;;32.77;17.30;;;-1.20;99.90;;;;;;5093367;28;20207;-71
2022/12/14 00:18:17;;;;;;;30.00;18.10;;;-1.10;99.90;;;;;;5093571;28;20224;-72
2022/12/14 00:20:43;;;;;;;33.77;18.63;;;-1.10;99.90;;;;;;5092882;28;20175;-72
2022/12/14 00:23:08;;;;;;;34.60;16.80;;;-1.10;99.90;;;;;;5093374;28;20626;-72
2022/12/14 00:25:34;;;;;;;30.90;16.83;;;-1.20;99.90;;;;;;5093483;28;20206;-72
2022/12/14 00:27:59;;;;;;;34.77;18.13;;;-1.30;99.90;;;;;;5093412;28;20221;-72
2022/12/14 00:30:25;;;;;;;30.87;16.17;;;-1.30;99.90;;;;;;5093241;28;20195;-72
2022/12/14 00:32:51;;;;;;;30.97;17.07;;;-1.40;99.90;;;;;;5093310;28;20218;-72
2022/12/14 00:35:17;;;;;;;31.30;17.63;;;-1.50;99.90;;;;;;5092726;28;20194;-72
2022/12/14 00:37:43;;;;;;;31.67;16.17;;;-1.50;99.90;;;;;;5093313;28;20168;-71
2022/12/14 00:40:10;;;;;;;41.37;19.80;;;-1.50;99.90;;;;;;5093270;28;20226;-72
2022/12/14 00:42:36;;;;;;;30.23;16.07;;;-1.50;99.90;;;;;;5093420;28;20210;-72
2022/12/14 00:45:06;;;;;;;30.93;17.23;;;-1.50;99.90;;;;;;5093151;28;20185;-71
2022/12/14 00:47:32;;;;;;;26.13;13.70;;;-1.50;99.90;;;;;;5093311;28;20194;-74
2022/12/14 00:49:57;;;;;;;29.73;16.40;;;-1.60;99.90;;;;;;5092762;28;20525;-72
2022/12/14 00:52:23;;;;;;;29.93;15.33;;;-1.50;99.90;;;;;;5093092;28;20210;-72
2022/12/14 00:54:48;;;;;;;27.97;15.63;;;-1.60;99.90;;;;;;5093112;28;20168;-73
2022/12/14 00:57:14;;;;;;;37.17;21.27;;;-1.60;99.90;;;;;;5093250;28;20176;-73
2022/12/14 00:59:39;;;;;;;30.63;17.40;;;-1.60;99.90;;;;;;5093211;28;20561;-71
2022/12/14 01:02:05;;;;;;;28.57;15.80;;;-1.50;99.90;;;;;;5093065;28;20224;-71
2022/12/14 01:04:31;;;;;;;31.57;16.17;;;-1.50;99.90;;;;;;5092639;28;20283;-71
2022/12/14 01:06:57;;;;;;;31.57;15.97;;;-1.40;99.90;;;;;;5093131;28;20717;-72
2022/12/14 01:09:24;;;;;;;26.40;14.90;;;-1.30;99.90;;;;;;5091796;28;20179;-72
2022/12/14 01:11:50;;;;;;;31.07;15.37;;;-1.20;99.90;;;;;;5092545;28;20253;-72
2022/12/14 01:14:19;;;;;;;25.57;14.77;;;-1.30;99.90;;;;;;5093122;28;20215;-72
2022/12/14 01:16:45;;;;;;;30.00;15.47;;;-1.30;99.90;;;;;;5093037;28;20203;-72
2022/12/14 01:19:11;;;;;;;24.03;13.27;;;-1.40;99.90;;;;;;5092653;28;20192;-72
2022/12/14 01:21:37;;;;;;;27.03;15.63;;;-1.30;99.90;;;;;;5093037;28;20172;-72
2022/12/14 01:24:04;;;;;;;26.50;15.10;;;-1.40;99.90;;;;;;5096192;28;20179;-71
2022/12/14 01:26:32;;;;;;;28.40;15.23;;;-1.40;99.90;;;;;;5096759;28;20165;-72
2022/12/14 01:28:58;;;;;;;25.97;15.07;;;-1.40;99.90;;;;;;5096693;28;20188;-72
2022/12/14 01:31:30;;;;;;;25.80;14.43;;;-1.50;99.90;;;;;;5096617;28;20214;-72
2022/12/14 01:33:56;;;;;;;25.07;14.33;;;-1.50;99.90;;;;;;5096288;28;20187;-71
2022/12/14 01:36:24;;;;;;;27.43;14.40;;;-1.60;99.90;;;;;;5096411;28;20186;-72
2022/12/14 01:38:55;;;;;;;28.20;14.30;;;-1.60;99.90;;;;;;5096487;28;20258;-72
2022/12/14 01:41:27;;;;;;;30.10;16.20;;;-1.60;99.90;;;;;;5096497;28;20175;-71
2022/12/14 01:43:55;;;;;;;22.57;11.87;;;-1.50;99.90;;;;;;5096234;28;20254;-71
2022/12/14 01:46:44;;;;;;;31.00;15.80;;;-1.60;99.90;;;;;;5095949;28;20225;-71
2022/12/14 01:49:12;;;;;;;29.17;15.67;;;-1.50;99.90;;;;;;5096244;28;20631;-73
2022/12/14 01:51:41;;;;;;;29.87;15.27;;;-1.50;99.90;;;;;;5096228;28;20216;-73
2022/12/14 01:54:10;;;;;;;34.73;16.50;;;-1.50;99.90;;;;;;5096255;28;20522;-73
2022/12/14 01:56:41;;;;;;;25.87;15.10;;;-1.40;99.90;;;;;;5096018;28;20297;-73
2022/12/14 01:59:15;;;;;;;24.77;13.27;;;-1.40;99.90;;;;;;5096249;28;20214;-72
2022/12/14 02:01:41;;;;;;;33.07;15.90;;;-1.50;99.90;;;;;;5095841;28;20164;-74
2022/12/14 02:04:07;;;;;;;30.87;15.17;;;-1.50;99.90;;;;;;5095960;28;20224;-73
2022/12/14 02:06:36;;;;;;;23.67;11.57;;;-1.40;99.90;;;;;;5096000;28;20641;-73
2022/12/14 02:09:04;;;;;;;26.93;14.10;;;-1.30;99.90;;;;;;5095975;28;20183;-71
2022/12/14 02:11:54;;;;;;;27.00;15.13;;;-1.40;99.90;;;;;;5095440;28;20237;-71
2022/12/14 02:14:20;;;;;;;31.70;16.17;;;-1.30;99.90;;;;;;5095844;28;20172;-70
2022/12/14 02:16:49;;;;;;;27.37;13.73;;;-1.20;99.90;;;;;;5095395;28;20164;-72
2022/12/14 02:19:15;;;;;;;23.90;12.33;;;-1.20;99.90;;;;;;5095661;28;20247;-72
2022/12/14 02:22:12;;;;;;;26.97;15.17;;;-1.30;99.90;;;;;;5095588;28;20200;-72
2022/12/14 02:24:58;;;;;;;30.20;15.63;;;-1.50;99.90;;;;;;5095453;28;20688;-72
2022/12/14 02:27:48;;;;;;;27.77;15.37;;;-1.40;99.90;;;;;;5095562;28;20180;-72
2022/12/14 02:30:21;;;;;;;27.60;14.93;;;-1.30;99.90;;;;;;5095153;28;20238;-72
2022/12/14 02:33:06;;;;;;;26.37;15.50;;;-1.30;99.90;;;;;;5095433;28;20188;-71
2022/12/14 02:35:47;;;;;;;29.40;15.50;;;-1.30;99.90;;;;;;5095229;28;20217;-71
2022/12/14 02:38:18;;;;;;;28.67;15.10;;;-1.30;99.90;;;;;;5095536;28;20179;-71
2022/12/14 02:41:19;;;;;;;30.93;16.13;;;-1.30;99.90;;;;;;5095446;28;20171;-70
2022/12/14 02:44:21;;;;;;;29.57;15.63;;;-1.30;99.90;;;;;;5013191;28;20196;-72
2022/12/14 02:47:11;;;;;;;25.73;14.33;;;-1.20;99.90;;;;;;5013006;28;20771;-71
2022/12/14 02:50:15;;;;;;;24.57;14.33;;;-1.20;99.90;;;;;;5013430;28;20167;-71
2022/12/14 02:53:11;;;;;;;26.47;15.37;;;-1.10;99.90;;;;;;4973995;28;20226;-71
2022/12/14 02:55:48;;;;;;;27.27;16.23;;;-1.10;99.90;;;;;;4973962;28;20711;-71
2022/12/14 02:58:22;;;;;;;25.77;15.40;;;-1.00;99.90;;;;;;4974086;28;20168;-71
2022/12/14 03:00:48;;;;;;;25.60;14.07;;;-1.00;99.90;;;;;;4973680;28;20192;-71
2022/12/14 03:03:14;;;;;;;24.23;14.60;;;-0.90;99.90;;;;;;4973793;28;20192;-70
2022/12/14 03:05:40;;;;;;;25.77;15.23;;;-0.80;99.90;;;;;;4973805;28;20547;-72
2022/12/14 03:08:10;;;;;;;28.27;15.50;;;-0.70;99.90;;;;;;4973845;28;20563;-71
2022/12/14 03:10:59;;;;;;;25.53;13.27;;;-0.80;99.90;;;;;;4973882;28;20172;-71
2022/12/14 03:13:54;;;;;;;26.17;15.47;;;-0.80;99.90;;;;;;4973132;28;20687;-71
2022/12/14 03:16:55;;;;;;;30.90;14.83;;;-1.00;99.90;;;;;;4971496;28;20710;-71
2022/12/14 03:19:39;;;;;;;32.57;15.53;;;-1.00;99.90;;;;;;4981537;28;20193;-71
2022/12/14 03:22:13;;;;;;;23.70;15.00;;;-1.10;99.90;;;;;;5032230;28;20193;-71
2022/12/14 03:24:46;;;;;;;23.40;13.43;;;-1.10;99.90;;;;;;5032136;28;20166;-71
2022/12/14 03:27:33;;;;;;;28.83;15.67;;;-1.10;99.90;;;;;;5038374;28;20170;-72
2022/12/14 03:30:04;;;;;;;27.40;15.40;;;-1.00;99.90;;;;;;5094055;28;20686;-71
2022/12/14 03:32:32;;;;;;;30.07;14.83;;;-1.00;99.90;;;;;;5094082;28;20241;-71
2022/12/14 03:35:12;;;;;;;26.63;15.37;;;-1.00;99.90;;;;;;5094107;28;20243;-71
2022/12/14 03:37:59;;;;;;;27.60;15.37;;;-0.90;99.90;;;;;;5094363;28;20304;-71
2022/12/14 03:41:00;;;;;;;26.77;14.73;;;-0.90;99.90;;;;;;5093943;28;20182;-71
2022/12/14 03:43:44;;;;;;;27.13;14.80;;;-0.90;99.90;;;;;;5093428;28;20180;-72
2022/12/14 03:47:02;;;;;;;24.17;14.40;;;-0.90;99.90;;;;;;5093502;28;20622;-70
2022/12/14 03:49:37;;;;;;;25.17;14.57;;;-0.90;99.90;;;;;;5012096;28;20174;-71
2022/12/14 03:52:25;;;;;;;23.40;13.87;;;-0.90;99.90;;;;;;5012222;28;20257;-71
2022/12/14 03:55:00;;;;;;;27.20;14.93;;;-0.80;99.90;;;;;;5011861;28;20181;-71
2022/12/14 03:57:43;;;;;;;26.07;14.87;;;-0.80;99.90;;;;;;5011503;28;20259;-72
2022/12/14 04:00:12;;;;;;;25.87;14.63;;;-0.90;99.90;;;;;;5011795;28;20178;-71
2022/12/14 04:03:14;;;;;;;26.10;14.70;;;-0.90;99.90;;;;;;5011833;28;20175;-71
2022/12/14 04:05:48;;;;;;;27.37;15.43;;;-0.90;99.90;;;;;;5009795;28;20278;-71
2022/12/14 04:08:27;;;;;;;24.47;14.77;;;-0.90;99.90;;;;;;5012246;28;20682;-71
2022/12/14 04:19:40;;;;;;;25.00;15.10;;;-0.90;99.90;;;;;;5012054;28;20182;-71
2022/12/14 04:22:12;;;;;;;27.40;15.73;;;-1.00;99.90;;;;;;5016545;28;20170;-73
2022/12/14 04:27:39;;;;;;;29.87;15.63;;;-1.00;99.90;;;;;;5093479;28;20229;-71
2022/12/14 04:30:08;;;;;;;26.23;14.93;;;-1.10;99.90;;;;;;5093411;28;20171;-71
2022/12/14 04:32:40;;;;;;;26.77;15.73;;;-1.10;99.90;;;;;;5093340;28;20209;-71
2022/12/14 04:35:10;;;;;;;27.80;15.90;;;-1.10;99.90;;;;;;5092667;28;20202;-70
2022/12/14 04:37:39;;;;;;;27.27;15.43;;;-1.00;99.90;;;;;;5093537;28;20179;-72
2022/12/14 04:40:12;;;;;;;27.33;16.03;;;-1.00;99.90;;;;;;5092720;28;20159;-72
2022/12/14 04:42:55;;;;;;;29.70;15.80;;;-1.10;99.90;;;;;;5093203;28;20263;-72
2022/12/14 04:45:31;;;;;;;28.37;15.97;;;-1.10;99.90;;;;;;5093257;28;20202;-71
2022/12/14 04:48:11;;;;;;;28.70;16.30;;;-1.00;99.90;;;;;;5092782;28;20171;-71
2022/12/14 04:50:44;;;;;;;28.73;16.07;;;-0.90;99.90;;;;;;5093107;28;20167;-71
2022/12/14 04:53:15;;;;;;;29.93;16.50;;;-0.80;99.90;;;;;;5093238;28;20176;-71
2022/12/14 04:56:25;;;;;;;31.27;17.40;;;-0.60;99.90;;;;;;5092563;28;20213;-71
2022/12/14 04:58:51;;;;;;;25.37;15.87;;;-0.70;99.90;;;;;;5013610;28;20203;-71
2022/12/14 05:01:47;;;;;;;29.50;15.93;;;-0.70;99.90;;;;;;5014990;28;20197;-71
2022/12/14 05:04:13;;;;;;;32.53;15.77;;;-0.70;99.90;;;;;;5014600;28;20183;-72
2022/12/14 05:06:44;;;;;;;28.13;15.13;;;-0.80;99.90;;;;;;5014763;28;20207;-71
2022/12/14 05:09:14;;;;;;;29.80;15.47;;;-0.80;99.90;;;;;;5014894;28;20205;-71
2022/12/14 05:12:04;;;;;;;26.17;15.07;;;-0.90;99.90;;;;;;5013954;28;20229;-71
2022/12/14 05:14:41;;;;;;;28.60;15.37;;;-1.00;99.90;;;;;;5014417;28;20210;-71
2022/12/14 05:17:07;;;;;;;29.40;15.70;;;-1.00;99.90;;;;;;5014659;28;20287;-70
2022/12/14 05:19:33;;;;;;;27.50;15.67;;;-1.00;99.90;;;;;;5014494;28;20209;-72
2022/12/14 05:22:05;;;;;;;30.43;16.17;;;-0.90;99.90;;;;;;5014097;28;20261;-72
2022/12/14 05:24:31;;;;;;;28.73;16.33;;;-0.80;99.90;;;;;;5013946;28;20189;-71
2022/12/14 05:26:57;;;;;;;31.10;15.23;;;-0.80;99.90;;;;;;5014065;28;20171;-71
2022/12/14 05:29:23;;;;;;;29.63;15.17;;;-0.60;99.90;;;;;;5014385;28;20202;-71
2022/12/14 05:31:50;;;;;;;31.80;16.10;;;-0.50;99.90;;;;;;5013886;28;20273;-72
2022/12/14 05:34:15;;;;;;;34.63;16.00;;;-0.50;99.90;;;;;;5017529;28;20202;-71
2022/12/14 05:36:41;;;;;;;31.70;16.57;;;-0.40;99.90;;;;;;5076181;28;20540;-71
2022/12/14 05:39:07;;;;;;;28.27;15.50;;;-0.40;99.90;;;;;;5075360;28;20193;-71
2022/12/14 05:41:32;;;;;;;26.47;15.60;;;-0.30;99.90;;;;;;5075516;28;20189;-72
2022/12/14 05:43:58;;;;;;;28.83;16.63;;;-0.30;99.90;;;;;;5075935;28;20170;-71
2022/12/14 05:46:24;;;;;;;26.47;15.37;;;-0.40;99.90;;;;;;5075735;28;20173;-71
2022/12/14 05:48:49;;;;;;;34.83;15.60;;;-0.40;99.90;;;;;;5075716;28;20576;-71
2022/12/14 05:51:16;;;;;;;30.20;17.20;;;-0.30;99.90;;;;;;5075450;28;20643;-70
2022/12/14 05:53:41;;;;;;;35.03;16.77;;;-0.30;99.90;;;;;;5074965;28;20235;-71
2022/12/14 05:56:08;;;;;;;30.17;15.53;;;-0.30;99.90;;;;;;5075416;28;20276;-71
2022/12/14 05:58:34;;;;;;;28.23;16.53;;;-0.40;99.90;;;;;;5075033;28;20182;-71
2022/12/14 06:01:06;;;;;;;30.57;16.73;;;-0.40;99.90;;;;;;5075434;28;20242;-70
2022/12/14 06:03:32;;;;;;;27.43;15.60;;;-0.50;99.90;;;;;;5075422;28;20311;-71
2022/12/14 06:06:07;;;;;;;30.80;15.63;;;-0.30;99.90;;;;;;5075203;28;20174;-71
2022/12/14 06:08:36;;;;;;;29.77;16.00;;;-0.30;99.90;;;;;;5089683;28;20191;-71
2022/12/14 06:11:07;;;;;;;30.93;17.03;;;-0.20;99.90;;;;;;5075083;28;20202;-72
2022/12/14 06:13:34;;;;;;;31.50;17.00;;;-0.10;99.90;;;;;;5094309;28;20227;-71
2022/12/14 06:16:27;;;;;;;29.07;16.33;;;-0.10;99.90;;;;;;5095160;28;20169;-71
2022/12/14 06:18:54;;;;;;;29.93;15.70;;;-0.20;99.90;;;;;;5091850;28;20181;-71
2022/12/14 06:21:24;;;;;;;29.23;15.77;;;-0.20;99.90;;;;;;5093798;28;20252;-71
2022/12/14 06:23:50;;;;;;;27.03;16.00;;;-0.20;99.90;;;;;;5093949;28;20171;-72
2022/12/14 06:26:16;;;;;;;28.13;16.13;;;-0.30;99.90;;;;;;5094495;28;20181;-71
2022/12/14 06:28:43;;;;;;;38.73;16.77;;;-0.30;99.90;;;;;;5094894;28;20175;-71
2022/12/14 06:31:14;;;;;;;32.47;17.23;;;-0.30;99.90;;;;;;5093727;28;20200;-71
2022/12/14 06:33:41;;;;;;;32.13;16.43;;;-0.20;99.90;;;;;;5094385;28;20203;-71
2022/12/14 06:36:18;;;;;;;29.20;15.80;;;-0.30;99.90;;;;;;5094305;28;20627;-72
2022/12/14 06:38:44;;;;;;;30.03;16.27;;;-0.20;99.90;;;;;;5094448;28;20168;-72
2022/12/14 06:41:10;;;;;;;31.27;15.80;;;-0.20;99.90;;;;;;5094237;28;20179;-72
2022/12/14 06:43:36;;;;;;;31.03;15.93;;;-0.20;99.90;;;;;;5094394;28;20534;-72
2022/12/14 06:46:07;;;;;;;26.43;15.50;;;-0.30;99.90;;;;;;5093936;28;20172;-71
2022/12/14 06:48:33;;;;;;;31.13;16.43;;;-0.40;99.90;;;;;;5094076;28;20268;-71
2022/12/14 06:51:02;;;;;;;28.47;15.87;;;-0.60;99.90;;;;;;5093795;28;20280;-71
2022/12/14 06:53:29;;;;;;;31.10;16.77;;;-0.60;99.90;;;;;;5093887;28;20232;-70
2022/12/14 06:56:10;;;;;;;34.10;17.07;;;-0.60;99.90;;;;;;5093480;28;20175;-72
2022/12/14 06:58:37;;;;;;;31.17;16.40;;;-0.50;99.90;;;;;;5093978;28;20222;-71
2022/12/14 07:01:04;;;;;;;35.33;17.17;;;-0.40;99.90;;;;;;5093485;28;20200;-72
2022/12/14 07:03:30;;;;;;;31.23;16.00;;;-0.40;99.90;;;;;;5093651;28;20160;-72
2022/12/14 07:05:56;;;;;;;37.60;17.50;;;-0.50;99.90;;;;;;5093939;28;20169;-72
2022/12/14 07:08:22;;;;;;;33.43;16.27;;;-0.50;99.90;;;;;;5093785;28;20168;-71
2022/12/14 07:10:48;;;;;;;38.27;16.27;;;-0.50;99.90;;;;;;5092973;28;20623;-71
2022/12/14 07:13:13;;;;;;;35.43;17.07;;;-0.40;99.90;;;;;;5093139;28;20284;-72
2022/12/14 07:15:39;;;;;;;31.53;16.20;;;-0.50;99.90;;;;;;5093344;28;20533;-71
2022/12/14 07:18:05;;;;;;;34.13;17.27;;;-0.40;99.90;;;;;;5093429;28;20525;-71
2022/12/14 07:20:30;;;;;;;31.67;16.40;;;-0.40;99.90;;;;;;5092247;28;20669;-71
2022/12/14 07:22:56;;;;;;;34.73;17.30;;;-0.40;99.90;;;;;;5089435;28;20172;-72
2022/12/14 07:25:21;;;;;;;37.50;17.93;;;-0.40;99.90;;;;;;5080580;28;20175;-71
2022/12/14 07:27:47;;;;;;;37.00;17.63;;;-0.40;99.90;;;;;;5092928;28;20513;-71
2022/12/14 07:30:13;;;;;;;36.57;17.97;;;-0.40;99.90;;;;;;5092866;28;20175;-71
2022/12/14 07:32:39;;;;;;;35.73;17.40;;;-0.30;99.90;;;;;;5092735;28;20240;-70
2022/12/14 07:35:05;;;;;;;30.17;17.30;;;-0.40;99.90;;;;;;5089476;28;20641;-71
2022/12/14 07:37:30;;;;;;;30.50;16.47;;;-0.40;99.90;;;;;;5072988;28;20360;-71
2022/12/14 07:39:56;;;;;;;32.50;17.30;;;-0.50;99.90;;;;;;5089031;28;20259;-71
2022/12/14 07:42:21;;;;;;;33.20;17.57;;;-0.60;99.90;;;;;;5057017;28;20579;-71
2022/12/14 07:44:47;;;;;;;33.37;17.50;;;-0.70;99.90;;;;;;5086120;28;20173;-71
2022/12/14 07:47:13;;;;;;;31.83;17.30;;;-0.70;99.90;;;;;;5081481;28;20270;-71
2022/12/14 07:49:38;;;;;;;30.27;16.63;;;-0.70;99.90;;;;;;5085559;28;20222;-71
2022/12/14 07:52:04;;;;;;;34.27;18.00;;;-0.70;99.90;;;;;;5088332;28;20206;-71
2022/12/14 07:54:30;;;;;;;33.83;17.67;;;-0.70;99.90;;;;;;5090524;28;20164;-72
2022/12/14 07:56:55;;;;;;;36.17;18.50;;;-0.60;99.90;;;;;;5091715;28;20214;-72
2022/12/14 07:59:21;;;;;;;33.07;17.33;;;-0.80;99.90;;;;;;5081040;28;20287;-71
2022/12/14 08:01:46;;;;;;;30.67;17.23;;;-0.90;99.90;;;;;;5086812;28;20175;-71
2022/12/14 08:04:15;;;;;;;32.70;17.80;;;-1.00;99.90;;;;;;5074210;28;20749;-71
2022/12/14 08:06:42;;;;;;;30.47;17.43;;;-0.90;99.90;;;;;;5074382;28;20578;-70
2022/12/14 08:09:10;;;;;;;33.67;17.63;;;-0.90;99.90;;;;;;5082898;28;20182;-72
2022/12/14 08:11:36;;;;;;;42.70;18.63;;;-0.80;99.90;;;;;;5083462;28;20691;-71
2022/12/14 08:14:05;;;;;;;37.13;18.67;;;-0.80;99.90;;;;;;5074323;28;20357;-70
2022/12/14 08:16:31;;;;;;;40.63;19.17;;;-0.90;99.90;;;;;;5101708;28;20176;-71
2022/12/14 08:18:58;;;;;;;38.30;19.47;;;-0.90;99.90;;;;;;5092169;28;20173;-71
2022/12/14 08:21:25;;;;;;;35.47;19.10;;;-0.90;99.90;;;;;;5088415;28;20176;-72
2022/12/14 08:23:51;;;;;;;36.53;18.53;;;-0.90;99.90;;;;;;5084636;28;20179;-72
2022/12/14 08:26:17;;;;;;;33.37;19.07;;;-0.90;99.90;;;;;;5104068;28;20176;-71
2022/12/14 08:28:43;;;;;;;36.57;18.63;;;-0.90;99.90;;;;;;5091048;28;20180;-70
2022/12/14 08:31:12;;;;;;;35.13;19.50;;;-0.90;99.90;;;;;;5082984;28;20231;-73
2022/12/14 08:33:39;;;;;;;35.57;20.00;;;-0.90;99.90;;;;;;5075015;28;20205;-71
2022/12/14 08:36:17;;;;;;;37.40;18.57;;;-0.90;99.90;;;;;;5090937;28;20255;-71
2022/12/14 08:38:42;;;;;;;36.03;18.83;;;-1.00;99.90;;;;;;5083745;28;20400;-73
2022/12/14 08:41:13;;;;;;;33.53;18.83;;;-0.90;99.90;;;;;;5082812;28;20181;-71
2022/12/14 08:43:39;;;;;;;39.97;20.90;;;-0.70;99.90;;;;;;5086832;28;20254;-70
2022/12/14 08:46:06;;;;;;;49.53;22.03;;;-0.40;99.90;;;;;;5088589;28;20251;-70
2022/12/14 08:48:32;;;;;;;40.13;20.60;;;0.10;99.90;;;;;;5090537;28;20642;-70
2022/12/14 08:51:02;;;;;;;51.50;26.47;;;0.90;99.90;;;;;;5086425;28;20298;-70
2022/12/14 08:53:28;;;;;;;35.43;22.17;;;1.80;99.90;;;;;;5078215;28;20180;-70
2022/12/14 08:55:53;;;;;;;39.00;21.63;;;2.40;99.90;;;;;;5079828;28;20263;-69
2022/12/14 08:58:19;;;;;;;32.23;18.37;;;2.70;99.90;;;;;;5089807;28;20597;-71
2022/12/14 09:00:45;;;;;;;35.20;18.73;;;3.00;99.90;;;;;;5091882;28;20168;-71
2022/12/14 09:03:10;;;;;;;37.63;19.50;;;3.70;99.90;;;;;;5090867;28;20176;-69
2022/12/14 09:05:37;;;;;;;33.07;18.77;;;4.30;99.90;;;;;;5075468;28;20176;-73
2022/12/14 09:08:03;;;;;;;35.20;17.80;;;5.20;99.90;;;;;;5084791;28;20223;-71
2022/12/14 09:10:28;;;;;;;33.70;18.20;;;5.90;99.90;;;;;;5090138;28;20215;-71
2022/12/14 09:12:54;;;;;;;34.50;18.23;;;6.00;99.00;;;;;;5091741;28;20256;-70
2022/12/14 09:15:19;;;;;;;30.97;18.83;;;5.70;98.00;;;;;;5090175;28;20184;-70
2022/12/14 09:17:45;;;;;;;33.23;18.17;;;5.30;98.30;;;;;;5075414;28;20211;-71
2022/12/14 09:20:12;;;;;;;28.53;17.43;;;4.70;99.90;;;;;;5078444;28;20179;-70
2022/12/14 09:22:38;;;;;;;33.37;17.83;;;4.90;99.90;;;;;;5090687;28;20387;-72
2022/12/14 09:25:05;;;;;;;37.53;20.07;;;5.30;99.70;;;;;;5095038;28;20661;-71
2022/12/14 09:27:32;;;;;;;36.80;18.07;;;5.80;98.50;;;;;;5104352;28;20664;-72
2022/12/14 09:29:57;;;;;;;36.03;18.43;;;6.20;97.40;;;;;;5098277;28;21118;-72
2022/12/14 09:32:23;;;;;;;28.03;18.43;;;6.90;96.30;;;;;;5076280;28;20310;-71
2022/12/14 09:34:49;;;;;;;24.50;16.57;;;6.80;94.50;;;;;;5109387;28;20191;-69
2022/12/14 09:37:14;;;;;;;27.07;17.43;;;6.50;94.00;;;;;;5091474;28;20175;-70
2022/12/14 09:39:40;;;;;;;30.57;18.67;;;5.60;95.60;;;;;;5080925;28;20176;-71
2022/12/14 09:42:28;;;;;;;27.17;17.63;;;5.30;96.00;;;;;;5101809;28;20282;-73
2022/12/14 09:45:39;;;;;;;29.23;17.63;;;4.70;97.60;;;;;;5083327;28;20554;-70
2022/12/14 09:48:19;;;;;;;32.17;17.37;;;4.00;98.90;;;;;;5074813;28;20165;-71
2022/12/14 09:50:49;;;;;;;29.40;17.63;;;3.20;99.90;;;;;;5090184;28;20364;-71
2022/12/14 09:53:17;;;;;;;29.37;16.87;;;3.10;99.90;;;;;;5094598;28;20621;-71
2022/12/14 09:55:49;;;;;;;30.77;18.83;;;2.90;99.90;;;;;;5089730;28;20173;-71
2022/12/14 09:58:18;;;;;;;31.33;17.97;;;2.60;99.90;;;;;;5085978;28;20167;-71
2022/12/14 10:01:02;;;;;;;32.60;18.70;;;2.50;99.90;;;;;;5099865;28;20175;-71
2022/12/14 10:04:05;;;;;;;33.93;18.07;;;2.90;99.90;;;;;;5110128;28;20179;-70
2022/12/14 10:06:48;;;;;;;30.90;16.90;;;3.60;99.90;;;;;;5097572;28;20176;-71
2022/12/14 10:09:46;;;;;;;25.93;16.67;;;4.40;99.90;;;;;;5107283;28;20599;-72
2022/12/14 10:12:43;;;;;;;28.40;16.07;;;4.60;99.20;;;;;;5099069;28;20227;-71
2022/12/14 10:15:27;;;;;;;26.87;15.93;;;4.70;98.10;;;;;;5098038;28;20643;-72
2022/12/14 10:18:11;;;;;;;25.73;16.03;;;5.60;97.10;;;;;;5101359;28;20267;-71
2022/12/14 10:20:52;;;;;;;30.00;17.27;;;6.50;94.90;;;;;;5092705;28;20572;-70
2022/12/14 10:23:22;;;;;;;32.97;17.17;;;6.80;99.90;;;;;;5077459;28;20219;-71
2022/12/14 10:25:53;;;;;;;26.83;17.13;;;6.90;1.00;;;;;;5090455;28;20226;-69
2022/12/14 10:28:34;;;;;;;27.83;16.70;;;7.50;99.90;;;;;;5079488;28;20662;-69
2022/12/14 10:31:00;;;;;;;30.87;17.87;;;6.80;99.90;;;;;;5086434;28;20176;-70
2022/12/14 10:33:30;;;;;;;27.83;17.30;;;7.20;99.90;;;;;;5087609;28;20204;-70
2022/12/14 10:36:14;;;;;;;32.83;17.13;;;7.50;99.90;;;;;;5084037;28;20176;-72
2022/12/14 10:38:57;;;;;;;25.37;17.20;;;7.80;4.00;;;;;;5085770;28;20175;-70
2022/12/14 10:41:33;;;;;;;26.40;17.33;;;8.20;1.00;;;;;;5092858;28;20179;-70
2022/12/14 10:44:13;;;;;;;33.73;18.53;;;8.40;1.00;;;;;;5091022;28;20182;-70
2022/12/14 10:46:54;;;;;;;27.93;17.20;;;7.80;1.00;;;;;;5080807;28;20175;-70
2022/12/14 10:49:55;;;;;;;22.93;16.20;;;8.00;1.00;;;;;;5084696;28;20168;-71
2022/12/14 10:52:25;;;;;;;25.57;16.80;;;7.70;1.00;;;;;;5086767;28;20222;-71
2022/12/14 10:54:55;;;;;;;23.13;16.27;;;6.90;24.00;;;;;;5096916;28;20183;-70
2022/12/14 10:57:25;;;;;;;29.57;17.67;;;6.80;99.90;;;;;;5092235;28;20178;-70
2022/12/14 10:59:52;;;;;;;25.70;16.77;;;6.30;91.30;;;;;;5086104;28;20168;-70
2022/12/14 11:02:20;;;;;;;25.50;16.60;;;6.60;91.50;;;;;;5089373;28;20176;-70
2022/12/14 11:04:57;;;;;;;29.40;17.37;;;6.40;91.00;;;;;;5084850;28;20957;-70
2022/12/14 11:07:25;;;;;;;26.40;17.90;;;6.80;99.90;;;;;;5086470;28;20202;-70
2022/12/14 11:09:51;;;;;;;26.83;17.27;;;7.10;1.00;;;;;;5088631;28;20173;-70
2022/12/14 11:12:25;;;;;;;30.53;18.67;;;7.30;1.00;;;;;;5081247;28;20230;-70
2022/12/14 11:14:57;;;;;;;22.60;15.80;;;7.20;1.00;;;;;;5084346;28;20206;-69
2022/12/14 11:17:39;;;;;;;26.87;16.53;;;7.30;1.00;;;;;;5087146;28;20176;-70
2022/12/14 11:20:16;;;;;;;23.10;15.63;;;7.40;1.00;;;;;;5091337;28;20183;-69
2022/12/14 11:22:48;;;;;;;24.33;16.67;;;8.00;1.00;;;;;;5087824;28;20167;-69
2022/12/14 11:25:37;;;;;;;23.00;16.53;;;8.60;1.00;;;;;;5084877;28;20544;-71
2022/12/14 11:28:14;;;;;;;22.80;16.07;;;8.70;1.00;;;;;;5083316;28;20180;-71
2022/12/14 11:30:49;;;;;;;28.47;16.03;;;7.60;1.00;;;;;;5091932;28;20191;-71
2022/12/14 11:33:16;;;;;;;26.17;15.73;;;6.10;18.50;;;;;;5084634;28;20241;-71
2022/12/14 11:35:50;;;;;;;28.10;17.03;;;5.80;89.80;;;;;;5081778;28;20634;-70
2022/12/14 11:38:15;;;;;;;24.97;15.83;;;6.40;89.40;;;;;;5081285;28;20207;-70
2022/12/14 11:40:41;;;;;;;28.20;16.40;;;6.00;89.40;;;;;;5088069;28;20203;-71
2022/12/14 11:43:37;;;;;;;26.87;17.57;;;5.60;91.10;;;;;;5079691;28;20263;-70
2022/12/14 11:46:04;;;;;;;30.37;17.57;;;5.40;93.30;;;;;;5086769;28;20180;-71
2022/12/14 11:48:30;;;;;;;28.47;17.60;;;6.20;92.00;;;;;;5081238;28;20200;-70
2022/12/14 11:51:12;;;;;;;29.03;17.13;;;6.80;90.70;;;;;;5077525;28;20198;-70
2022/12/14 11:53:39;;;;;;;28.03;18.03;;;7.60;85.00;;;;;;5078223;28;20260;-71
2022/12/14 11:56:14;;;;;;;26.17;17.73;;;8.10;1.00;;;;;;5088637;28;20172;-71
2022/12/14 11:58:50;;;;;;;27.57;18.73;;;8.40;1.00;;;;;;5087686;28;20170;-71
2022/12/14 12:01:21;;;;;;;26.27;18.23;;;8.50;1.00;;;;;;5087407;28;20193;-70
2022/12/14 12:03:49;;;;;;;24.10;18.03;;;8.40;1.00;;;;;;5084483;28;20187;-71
2022/12/14 12:06:21;;;;;;;25.73;17.63;;;8.20;1.00;;;;;;5083920;28;20639;-70
2022/12/14 12:08:58;;;;;;;26.47;17.87;;;7.70;1.00;;;;;;5091688;28;20179;-71
2022/12/14 12:11:30;;;;;;;27.33;17.83;;;7.60;1.00;;;;;;5090830;28;20227;-72
2022/12/14 12:14:00;;;;;;;26.37;17.70;;;7.70;1.00;;;;;;5080379;28;20263;-70
2022/12/14 12:16:28;;;;;;;27.13;17.97;;;7.50;1.00;;;;;;5081204;28;20188;-72
2022/12/14 12:19:00;;;;;;;26.57;18.30;;;7.20;84.40;;;;;;5084209;28;20190;-72
2022/12/14 12:21:27;;;;;;;23.87;17.80;;;7.20;85.70;;;;;;5075027;28;20652;-72
2022/12/14 12:24:18;;;;;;;28.67;17.27;;;7.30;84.30;;;;;;5065708;28;20543;-72
2022/12/14 12:26:50;;;;;;;26.93;16.47;;;7.50;84.10;;;;;;5078656;28;20176;-72
2022/12/14 12:29:22;;;;;;;28.73;17.83;;;7.10;79.80;;;;;;5087318;28;20180;-73
2022/12/14 12:32:02;;;;;;;35.67;18.57;;;7.20;84.20;;;;;;5087801;28;20202;-72
2022/12/14 12:34:42;;;;;;;28.20;17.70;;;7.40;82.20;;;;;;5081114;28;20191;-71
2022/12/14 12:37:15;;;;;;;43.00;18.90;;;6.50;84.80;;;;;;5087817;28;20609;-71
2022/12/14 12:39:44;;;;;;;33.47;19.23;;;5.60;91.50;;;;;;5084751;28;20254;-71
2022/12/14 12:42:13;;;;;;;31.27;18.83;;;5.30;92.60;;;;;;5087403;28;20172;-72
2022/12/14 12:44:58;;;;;;;32.03;19.13;;;4.90;93.90;;;;;;5087124;28;20243;-70
2022/12/14 12:47:34;;;;;;;33.43;20.17;;;4.50;94.70;;;;;;5088927;28;20250;-71
2022/12/14 12:50:05;;;;;;;28.17;18.57;;;4.10;96.30;;;;;;5084923;28;20164;-71
2022/12/14 12:52:37;;;;;;;31.13;17.77;;;3.30;98.40;;;;;;5084604;28;20216;-72
2022/12/14 12:55:13;;;;;;;27.93;18.90;;;3.00;99.60;;;;;;5086060;28;20183;-70
2022/12/14 12:57:44;;;;;;;31.33;18.57;;;2.50;99.90;;;;;;5078861;28;20196;-69
2022/12/14 13:00:21;;;;;;;31.70;18.97;;;2.40;99.90;;;;;;5085635;28;20160;-71
2022/12/14 13:02:56;;;;;;;31.33;18.57;;;2.40;99.90;;;;;;5083317;28;20175;-71
2022/12/14 13:05:26;;;;;;;32.80;19.47;;;2.50;99.90;;;;;;5085714;28;20232;-72
2022/12/14 13:08:01;;;;;;;34.07;18.83;;;2.60;99.90;;;;;;5082855;28;20180;-70